Grandin, North Dakota
Current Conditions -  °F | °C
As of 3:53 AM on Saturday 25 Oct 2014 (Local Time) from KFAR Reporting Station
Clear Clear  
Wind Chill: 38°   Ceiling: Unl
Heat Index: 43°   Visibility: 10mi
Dew Point: 31°   Wind: 9mph
Humidity: 62%   Direction: 280°W
Pressure: 30.01"   Gusts: NA
Location:  47.24°N, 97°W
Report Text: KFAR 250853Z AUTO 28008KT 10SM CLR 06/M01 A3001 RMK AO2 SLP163 T00611006 51014 TSNO
Loading
Personal Weather Stations






























Interactive Weather Map
Tropical Storm Tracking
New forecast layout! Learn more

10-Day Weather Forecast

Advertisements
Track Severe Weather on mobile